createdAt,value
2022-10-01T00:03:58.868Z,37.27
2022-10-01T00:06:43.758Z,30.42
2022-10-01T00:09:29.092Z,24.67
2022-10-01T00:15:13.523Z,30.33
2022-10-01T00:18:05.923Z,40.87
2022-10-01T00:20:46.366Z,34.77
2022-10-01T00:23:33.603Z,33.40
2022-10-01T00:26:40.278Z,29.60
2022-10-01T00:29:20.383Z,38.83
2022-10-01T00:32:16.192Z,52.67
2022-10-01T00:35:04.395Z,38.13
2022-10-01T00:37:38.582Z,33.80
2022-10-01T00:40:34.518Z,29.50
2022-10-01T00:43:40.231Z,24.70
2022-10-01T00:46:24.879Z,24.27
2022-10-01T00:49:09.717Z,46.67
2022-10-01T00:51:56.188Z,36.83
2022-10-01T00:54:40.904Z,34.10
2022-10-01T01:00:30.932Z,20.80
2022-10-01T01:03:19.344Z,25.43
2022-10-01T01:06:05.332Z,26.90
2022-10-01T01:08:46.255Z,24.23
2022-10-01T01:11:42.743Z,30.80
2022-10-01T01:14:43.417Z,23.97
2022-10-01T01:20:57.561Z,24.70
2022-10-01T01:24:14.880Z,19.80
2022-10-01T01:26:55.394Z,19.53
2022-10-01T01:29:50.845Z,23.83
2022-10-01T01:32:38.579Z,18.30
2022-10-01T01:35:14.078Z,32.90
2022-10-01T01:37:59.388Z,20.10
2022-10-01T01:43:59.489Z,52.60
2022-10-01T01:46:43.818Z,60.17
2022-10-01T01:49:22.923Z,55.40
2022-10-01T01:52:07.876Z,30.33
2022-10-01T01:54:47.424Z,19.60
2022-10-01T01:57:27.318Z,26.33
2022-10-01T02:00:02.823Z,45.07
2022-10-01T02:03:02.772Z,33.77
2022-10-01T02:06:09.639Z,27.33
2022-10-01T02:09:03.607Z,22.63
2022-10-01T02:11:57.495Z,23.80
2022-10-01T02:14:52.337Z,20.13
2022-10-01T02:17:44.131Z,21.87
2022-10-01T02:20:43.749Z,23.80
2022-10-01T02:29:27.778Z,26.50
2022-10-01T02:32:09.648Z,23.07
2022-10-01T02:35:04.745Z,22.03
2022-10-01T02:37:57.389Z,19.00
2022-10-01T02:40:48.305Z,19.70
2022-10-01T02:43:43.180Z,14.70
2022-10-01T02:46:30.039Z,16.63
2022-10-01T02:49:09.381Z,17.40
2022-10-01T02:52:15.380Z,14.80
2022-10-01T02:55:19.714Z,18.27
2022-10-01T03:01:06.557Z,19.33
2022-10-01T03:03:58.402Z,17.87
2022-10-01T03:06:37.759Z,18.90
2022-10-01T03:09:30.286Z,15.17
2022-10-01T03:12:25.918Z,12.73
2022-10-01T03:15:13.566Z,11.77
2022-10-01T03:17:59.250Z,14.57
2022-10-01T03:20:45.319Z,13.17
2022-10-01T03:26:22.112Z,17.17
2022-10-01T03:29:12.614Z,18.23
2022-10-01T03:31:51.249Z,11.47
2022-10-01T03:34:29.305Z,16.55
2022-10-01T03:37:06.516Z,12.37
2022-10-01T03:39:41.883Z,12.20
2022-10-01T03:42:28.245Z,16.80
2022-10-01T03:45:09.182Z,19.17
2022-10-01T03:47:54.619Z,12.13
2022-10-01T03:50:42.227Z,14.23
2022-10-01T03:53:19.845Z,13.50
2022-10-01T03:59:01.479Z,17.85
2022-10-01T04:02:38.392Z,19.10
2022-10-01T04:05:31.569Z,14.13
2022-10-01T04:08:12.385Z,16.60
2022-10-01T04:10:47.851Z,17.23
2022-10-01T04:13:30.652Z,16.65
2022-10-01T04:16:28.365Z,13.38
2022-10-01T04:19:08.889Z,19.50
2022-10-01T04:22:02.574Z,19.88
2022-10-01T04:24:55.797Z,15.35
2022-10-01T04:27:39.608Z,10.70
2022-10-01T04:30:28.146Z,14.65
2022-10-01T04:33:37.595Z,16.60
2022-10-01T04:36:19.322Z,13.63
2022-10-01T04:39:22.198Z,14.13
2022-10-01T04:42:01.199Z,13.30
2022-10-01T04:44:38.827Z,11.68
2022-10-01T04:47:23.694Z,17.60
2022-10-01T04:50:03.024Z,14.68
2022-10-01T04:52:43.970Z,13.60
2022-10-01T04:55:33.734Z,19.00
2022-10-01T04:58:17.282Z,15.98
2022-10-01T05:00:58.543Z,16.63
2022-10-01T05:03:41.212Z,13.15
2022-10-01T05:06:16.689Z,12.87
2022-10-01T05:08:58.940Z,12.45
2022-10-01T05:11:41.186Z,16.15
2022-10-01T05:14:20.016Z,13.55
2022-10-01T05:16:57.343Z,12.45
2022-10-01T05:19:54.797Z,10.65
2022-10-01T05:22:28.748Z,8.30
2022-10-01T05:25:13.683Z,11.30
2022-10-01T05:28:17.186Z,8.70
2022-10-01T05:34:03.837Z,9.25
2022-10-01T05:36:38.860Z,8.57
2022-10-01T05:39:25.712Z,9.98
2022-10-01T05:42:09.532Z,5.95
2022-10-01T05:44:50.255Z,9.50
2022-10-01T05:47:27.826Z,6.35
2022-10-01T05:50:06.931Z,5.57
2022-10-01T05:52:52.260Z,2.85
2022-10-01T05:55:31.599Z,2.97
2022-10-01T05:58:45.134Z,1.88
2022-10-01T06:01:40.122Z,2.72
2022-10-01T06:04:25.125Z,3.15
2022-10-01T06:07:25.538Z,3.10
2022-10-01T06:10:03.459Z,3.33
2022-10-01T06:12:42.874Z,0.80
2022-10-01T06:15:23.755Z,1.45
2022-10-01T06:18:16.111Z,2.05
2022-10-01T06:21:08.382Z,2.25
2022-10-01T06:24:08.452Z,1.02
2022-10-01T06:27:07.141Z,1.80
2022-10-01T06:29:44.006Z,1.88
2022-10-01T06:32:34.796Z,1.60
2022-10-01T06:35:37.160Z,1.10
2022-10-01T06:38:19.164Z,2.47
2022-10-01T06:41:04.759Z,4.25
2022-10-01T06:44:09.503Z,2.25
2022-10-01T06:46:45.660Z,5.90
2022-10-01T06:49:27.420Z,2.70
2022-10-01T06:52:35.966Z,3.20
2022-10-01T06:55:22.282Z,4.70
2022-10-01T06:58:05.035Z,3.15
2022-10-01T07:01:03.779Z,6.25
2022-10-01T07:03:51.395Z,7.80
2022-10-01T07:06:28.876Z,3.10
2022-10-01T07:09:10.922Z,4.38
2022-10-01T07:11:51.063Z,3.75
2022-10-01T07:14:45.346Z,3.13
2022-10-01T07:17:24.939Z,3.90
2022-10-01T07:20:31.597Z,3.78
2022-10-01T07:23:08.107Z,3.80
2022-10-01T07:25:49.750Z,2.75
2022-10-01T07:28:28.995Z,3.08
2022-10-01T07:31:12.822Z,2.25
2022-10-01T07:34:17.163Z,3.05
2022-10-01T07:37:11.069Z,4.15
2022-10-01T07:39:48.941Z,4.82
2022-10-01T07:42:43.601Z,6.88
2022-10-01T07:45:34.017Z,7.05
2022-10-01T07:48:10.944Z,2.80
2022-10-01T07:50:59.964Z,4.47
2022-10-01T07:53:36.493Z,6.55
2022-10-01T07:56:28.611Z,3.85
2022-10-01T07:59:17.574Z,6.32
2022-10-01T08:02:09.819Z,7.57
2022-10-01T08:05:01.036Z,3.33
2022-10-01T08:10:38.794Z,9.30
2022-10-01T08:13:19.783Z,5.97
2022-10-01T08:16:10.284Z,8.73
2022-10-01T08:18:58.011Z,3.38
2022-10-01T08:21:38.234Z,3.72
2022-10-01T08:24:28.779Z,3.72
2022-10-01T08:27:15.575Z,2.83
2022-10-01T08:29:51.683Z,2.03
2022-10-01T08:32:35.723Z,5.50
2022-10-01T08:35:23.394Z,2.92
2022-10-01T08:38:05.199Z,2.53
2022-10-01T08:40:40.849Z,3.72
2022-10-01T08:43:34.516Z,5.90
2022-10-01T08:46:23.851Z,5.07
2022-10-01T08:49:10.950Z,3.53
2022-10-01T08:55:29.861Z,5.32
2022-10-01T08:58:19.589Z,3.03
2022-10-01T09:01:02.145Z,6.13
2022-10-01T09:03:47.007Z,7.60
2022-10-01T09:06:31.270Z,7.15
2022-10-01T09:09:47.389Z,1.90
2022-10-01T09:12:35.054Z,3.10
2022-10-01T09:15:27.919Z,4.22
2022-10-01T09:18:30.969Z,5.93
2022-10-01T09:21:13.978Z,5.22
2022-10-01T09:24:11.822Z,3.20
2022-10-01T09:26:57.056Z,1.55
2022-10-01T09:30:02.868Z,2.22
2022-10-01T09:32:53.657Z,0.50
2022-10-01T09:35:51.000Z,4.40
2022-10-01T09:38:39.195Z,5.03
2022-10-01T09:41:25.565Z,4.75
2022-10-01T09:44:10.479Z,5.82
2022-10-01T09:46:48.314Z,2.63
2022-10-01T09:52:53.140Z,5.57
2022-10-01T09:55:40.735Z,3.88
2022-10-01T09:58:18.865Z,3.85
2022-10-01T10:04:20.149Z,3.15
2022-10-01T10:07:09.496Z,6.63
2022-10-01T10:09:57.712Z,1.98
2022-10-01T10:12:43.448Z,2.97
2022-10-01T10:15:30.559Z,8.02
2022-10-01T10:18:40.405Z,4.70
2022-10-01T10:21:29.843Z,6.38
2022-10-01T10:24:13.742Z,5.45
2022-10-01T10:27:16.419Z,9.55
2022-10-01T10:30:04.917Z,8.63
2022-10-01T10:33:04.350Z,3.38
2022-10-01T10:38:54.074Z,9.30
2022-10-01T10:41:48.212Z,7.25
2022-10-01T10:44:39.039Z,7.80
2022-10-01T10:51:26.697Z,6.65
2022-10-01T10:54:11.855Z,6.40
2022-10-01T10:56:58.275Z,4.53
2022-10-01T10:59:54.763Z,7.28
2022-10-01T11:05:34.645Z,7.15
2022-10-01T11:08:33.176Z,6.00
2022-10-01T11:11:23.508Z,6.22
2022-10-01T11:14:23.997Z,3.25
2022-10-01T11:20:41.991Z,3.50
2022-10-01T11:24:09.711Z,5.68
2022-10-01T11:27:06.826Z,4.90
2022-10-01T11:29:57.898Z,5.28
2022-10-01T11:32:50.545Z,1.80
2022-10-01T11:35:50.963Z,5.82
2022-10-01T11:38:52.988Z,4.70
2022-10-01T11:41:57.592Z,3.08
2022-10-01T11:44:40.919Z,6.50
2022-10-01T11:47:54.021Z,5.25
2022-10-01T11:50:45.256Z,9.05
2022-10-01T11:53:25.772Z,4.45
2022-10-01T11:56:37.519Z,8.40
2022-10-01T11:59:25.421Z,8.50
2022-10-01T12:09:23.104Z,7.13
2022-10-01T12:12:17.944Z,7.68
2022-10-01T12:15:06.695Z,13.15
2022-10-01T12:17:54.355Z,12.68
2022-10-01T12:20:44.391Z,6.15
2022-10-01T12:27:15.782Z,8.25
2022-10-01T12:30:28.363Z,7.28
2022-10-01T12:37:34.877Z,6.20
2022-10-01T12:41:19.387Z,4.82
2022-10-01T12:44:50.879Z,7.03
2022-10-01T12:48:06.683Z,10.65
2022-10-01T12:55:26.511Z,3.38
2022-10-01T13:01:37.161Z,6.25
2022-10-01T13:05:13.616Z,3.42
2022-10-01T13:12:06.013Z,3.65
2022-10-01T13:14:44.903Z,3.95
2022-10-01T13:17:51.506Z,4.53
2022-10-01T13:20:45.263Z,3.15
2022-10-01T13:23:32.596Z,5.00
2022-10-01T13:26:21.544Z,4.93
2022-10-01T13:29:15.492Z,8.25
2022-10-01T13:32:04.400Z,6.63
2022-10-01T13:35:09.727Z,4.53
2022-10-01T13:37:45.998Z,8.55
2022-10-01T13:40:38.267Z,5.97
2022-10-01T13:43:32.517Z,4.38
2022-10-01T13:46:19.981Z,7.25
2022-10-01T13:49:04.515Z,5.88
2022-10-01T13:51:56.864Z,5.65
2022-10-01T13:54:49.039Z,6.95
2022-10-01T14:00:42.127Z,4.15
2022-10-01T14:03:52.283Z,7.05
2022-10-01T14:06:47.429Z,3.63
2022-10-01T14:09:45.285Z,2.88
2022-10-01T14:12:42.853Z,2.50
2022-10-01T14:15:41.012Z,2.42
2022-10-01T14:18:29.434Z,1.70
2022-10-01T14:21:31.990Z,1.27
2022-10-01T14:24:30.314Z,5.45
2022-10-01T14:27:53.670Z,8.25
2022-10-01T14:30:38.664Z,4.43
2022-10-01T14:33:30.915Z,3.88
2022-10-01T14:36:12.148Z,4.43
2022-10-01T14:38:53.290Z,4.90
2022-10-01T14:41:53.475Z,6.22
2022-10-01T14:44:50.066Z,5.05
2022-10-01T14:47:40.791Z,7.88
2022-10-01T14:50:24.375Z,5.93
2022-10-01T14:53:15.480Z,5.18
2022-10-01T15:01:47.408Z,3.72
2022-10-01T15:04:32.316Z,8.88
2022-10-01T15:07:24.364Z,7.65
2022-10-01T15:13:34.378Z,10.57
2022-10-01T15:16:21.663Z,4.25
2022-10-01T15:24:59.759Z,9.27
2022-10-01T15:27:42.077Z,8.95
2022-10-01T15:30:42.622Z,5.50
2022-10-01T15:33:46.950Z,6.00
2022-10-01T15:36:50.894Z,4.25
2022-10-01T15:39:44.221Z,5.32
2022-10-01T15:42:42.609Z,5.78
2022-10-01T15:45:42.614Z,5.65
2022-10-01T15:48:40.084Z,4.90
2022-10-01T15:51:32.980Z,4.45
2022-10-01T15:54:34.011Z,2.30
2022-10-01T15:57:19.250Z,1.45
2022-10-01T16:00:13.812Z,3.83
2022-10-01T16:02:56.096Z,3.22
2022-10-01T16:05:36.230Z,2.08
2022-10-01T16:08:25.751Z,5.72
2022-10-01T16:11:43.651Z,6.72
2022-10-01T16:15:18.794Z,13.73
2022-10-01T16:18:32.548Z,9.13
2022-10-01T16:21:13.031Z,9.98
2022-10-01T16:24:13.686Z,3.72
2022-10-01T16:27:21.709Z,3.80
2022-10-01T16:30:05.837Z,4.60
2022-10-01T16:32:52.446Z,6.60
2022-10-01T16:35:39.281Z,3.88
2022-10-01T16:38:29.963Z,3.13
2022-10-01T16:41:10.332Z,3.25
2022-10-01T16:44:03.485Z,5.07
2022-10-01T16:46:50.990Z,2.28
2022-10-01T16:49:27.445Z,2.70
2022-10-01T16:52:13.582Z,2.45
2022-10-01T16:54:52.511Z,4.55
2022-10-01T16:57:37.963Z,1.98
2022-10-01T17:00:26.586Z,4.38
2022-10-01T17:03:38.464Z,2.15
2022-10-01T17:06:16.582Z,5.90
2022-10-01T17:08:55.610Z,6.43
2022-10-01T17:11:41.577Z,2.65
2022-10-01T17:14:19.883Z,2.47
2022-10-01T17:17:04.198Z,3.05
2022-10-01T17:19:42.809Z,1.45
2022-10-01T17:22:27.086Z,4.43
2022-10-01T17:25:39.088Z,1.55
2022-10-01T17:28:27.460Z,3.28
2022-10-01T17:31:28.327Z,3.78
2022-10-01T17:34:09.856Z,1.42
2022-10-01T17:36:55.216Z,2.90
2022-10-01T17:39:46.396Z,5.03
2022-10-01T17:42:25.621Z,3.65
2022-10-01T17:45:04.860Z,4.43
2022-10-01T17:47:49.195Z,4.22
2022-10-01T17:50:33.586Z,2.05
2022-10-01T17:53:13.679Z,2.97
2022-10-01T17:55:52.804Z,1.83
2022-10-01T17:58:31.030Z,1.50
2022-10-01T18:04:07.881Z,2.70
2022-10-01T18:09:38.236Z,3.88
2022-10-01T18:12:15.256Z,3.60
2022-10-01T18:14:56.347Z,4.72
2022-10-01T18:17:32.081Z,1.60
2022-10-01T18:20:10.311Z,9.65
2022-10-01T18:22:50.083Z,3.33
2022-10-01T18:28:35.041Z,5.40
2022-10-01T18:31:31.209Z,1.58
2022-10-01T18:37:29.978Z,1.95
2022-10-01T18:46:38.359Z,2.58
2022-10-01T18:49:26.631Z,5.03
2022-10-01T18:52:21.403Z,3.45
2022-10-01T18:55:46.610Z,2.80
2022-10-01T18:58:52.576Z,3.03
2022-10-01T19:01:46.035Z,4.70
2022-10-01T19:05:13.594Z,4.35
2022-10-01T19:08:07.096Z,4.47
2022-10-01T19:11:04.682Z,1.15
2022-10-01T19:13:41.920Z,1.35
2022-10-01T19:16:47.046Z,3.65
2022-10-01T19:19:46.133Z,1.58
2022-10-01T19:22:46.016Z,3.53
2022-10-01T19:25:35.110Z,2.47
2022-10-01T19:28:40.687Z,2.53
2022-10-01T19:31:34.748Z,2.53
2022-10-01T19:34:31.689Z,3.90
2022-10-01T19:37:30.956Z,1.70
2022-10-01T19:40:10.032Z,2.22
2022-10-01T19:43:04.556Z,4.75
2022-10-01T19:45:51.081Z,4.50
2022-10-01T19:48:40.703Z,4.78
2022-10-01T19:51:26.606Z,3.70
2022-10-01T19:54:19.910Z,3.75
2022-10-01T19:57:06.271Z,2.65
2022-10-01T20:02:40.507Z,3.10
2022-10-01T20:05:25.288Z,7.82
2022-10-01T20:08:31.632Z,3.55
2022-10-01T20:11:29.634Z,3.00
2022-10-01T20:14:41.443Z,4.90
2022-10-01T20:17:52.655Z,2.47
2022-10-01T20:20:58.787Z,3.92
2022-10-01T20:23:59.114Z,4.30
2022-10-01T20:26:49.267Z,3.35
2022-10-01T20:29:47.629Z,8.48
2022-10-01T20:32:27.376Z,5.90
2022-10-01T20:35:21.864Z,4.68
2022-10-01T20:38:12.159Z,5.03
2022-10-01T20:43:56.112Z,7.10
2022-10-01T20:46:43.150Z,3.00
2022-10-01T20:49:43.831Z,4.13
2022-10-01T20:52:49.377Z,2.15
2022-10-01T20:55:47.579Z,2.83
2022-10-01T20:58:30.799Z,2.22
2022-10-01T21:01:16.605Z,3.13
2022-10-01T21:04:11.526Z,4.03
2022-10-01T21:07:10.535Z,2.00
2022-10-01T21:09:56.750Z,3.28
2022-10-01T21:12:56.088Z,2.00
2022-10-01T21:15:38.851Z,2.53
2022-10-01T21:18:30.263Z,3.92
2022-10-01T21:21:16.383Z,3.10
2022-10-01T21:24:10.014Z,1.13
2022-10-01T21:26:56.470Z,3.00
2022-10-01T21:30:06.138Z,1.40
2022-10-01T21:33:21.060Z,1.85
2022-10-01T21:36:08.222Z,1.25
2022-10-01T21:39:12.190Z,2.65
2022-10-01T21:45:18.705Z,3.63
2022-10-01T21:51:38.679Z,6.10
2022-10-01T21:57:47.353Z,3.67
2022-10-01T22:00:51.044Z,2.13
2022-10-01T22:03:51.944Z,3.47
2022-10-01T22:06:41.943Z,1.75
2022-10-01T22:09:39.084Z,3.65
2022-10-01T22:12:29.312Z,1.80
2022-10-01T22:15:29.199Z,1.98
2022-10-01T22:18:12.546Z,2.13
2022-10-01T22:21:01.251Z,4.10
2022-10-01T22:23:55.017Z,1.73
2022-10-01T22:26:35.126Z,2.67
2022-10-01T22:29:19.523Z,1.15
2022-10-01T22:32:02.807Z,5.03
2022-10-01T22:34:49.862Z,3.67
2022-10-01T22:37:41.018Z,2.88
2022-10-01T22:40:32.055Z,3.33
2022-10-01T22:43:19.075Z,5.07
2022-10-01T22:46:27.616Z,4.93
2022-10-01T22:49:16.238Z,2.28
2022-10-01T22:52:13.334Z,3.88
2022-10-01T22:55:21.256Z,3.90
2022-10-01T22:58:30.146Z,5.10
2022-10-01T23:01:14.225Z,8.15
2022-10-01T23:04:15.886Z,3.95
2022-10-01T23:07:04.056Z,3.10
2022-10-01T23:09:55.481Z,4.28
2022-10-01T23:12:52.544Z,2.55
2022-10-01T23:15:41.208Z,2.95
2022-10-01T23:18:45.585Z,7.15
2022-10-01T23:21:38.748Z,3.10
2022-10-01T23:24:30.965Z,7.53
2022-10-01T23:27:31.533Z,4.65
2022-10-01T23:30:31.491Z,4.00
2022-10-01T23:33:19.124Z,2.17
2022-10-01T23:36:15.972Z,1.88
2022-10-01T23:39:20.934Z,2.03
2022-10-01T23:42:15.439Z,1.60
2022-10-01T23:45:04.298Z,1.88
2022-10-01T23:47:57.956Z,0.80
2022-10-01T23:50:46.140Z,2.65
2022-10-01T23:53:34.334Z,5.15
2022-10-01T23:59:36.567Z,6.68
